Time;durP1;ratioP1;P1;durP2;ratioP2;P2;SDS_P1;SDS_P2;PMS_P1;PMS_P2;Temp;Humidity;BMP_temperature;BMP_pressure;BME280_temperature;BME280_humidity;BME280_pressure;Samples;Min_cycle;Max_cycle;Signal;HPM_P1;HPM_P2
2023/10/23 00:01:39;;;;;;;0.57;0.38;;;6.90;99.90;;;;;;5019764;28;20577;-84
2023/10/23 00:04:06;;;;;;;1.73;0.73;;;;;;;;;;5026681;28;20080;-87
2023/10/23 00:06:32;;;;;;;1.48;0.35;;;;;;;;;;5025830;28;20030;-84
2023/10/23 00:08:58;;;;;;;2.58;0.45;;;;;;;;;;5025080;28;20389;-84
2023/10/23 00:11:25;;;;;;;1.35;0.40;;;6.30;99.90;;;;;;5036083;28;20029;-84
2023/10/23 00:13:51;;;;;;;1.40;0.32;;;;;;;;;;5034974;28;20055;-83
2023/10/23 00:16:18;;;;;;;0.17;0.17;;;6.40;99.90;;;;;;5034256;28;20041;-84
2023/10/23 00:18:44;;;;;;;0.93;0.50;;;;;;;;;;5030436;28;20063;-86
2023/10/23 00:21:10;;;;;;;2.10;0.80;;;;;;;;;;5035932;28;20606;-85
2023/10/23 00:23:36;;;;;;;0.73;0.43;;;;;;;;;;5026716;28;20555;-86
2023/10/23 00:26:02;;;;;;;2.35;0.65;;;;;;;;;;5038066;28;20527;-87
2023/10/23 00:28:28;;;;;;;0.95;0.50;;;;;;;;;;5032012;28;20112;-86
2023/10/23 00:30:54;;;;;;;0.88;0.60;;;;;;;;;;5032922;28;20033;-86
2023/10/23 00:33:20;;;;;;;1.83;0.60;;;;;;;;;;5034139;28;20056;-86
2023/10/23 00:35:45;;;;;;;2.30;0.50;;;;;;;;;;5034135;28;20025;-87
2023/10/23 00:38:11;;;;;;;5.00;0.63;;;;;;;;;;5034433;28;20026;-88
2023/10/23 00:40:37;;;;;;;1.02;0.50;;;;;;;;;;5033345;28;20022;-88
2023/10/23 00:43:13;;;;;;;2.13;0.60;;;;;;;;;;5034798;28;20099;-84
2023/10/23 00:45:49;;;;;;;1.63;0.43;;;6.30;99.90;;;;;;5034345;28;20030;-87
2023/10/23 00:48:15;;;;;;;0.50;0.30;;;;;;;;;;5028566;28;20072;-84
2023/10/23 00:50:41;;;;;;;1.80;0.55;;;;;;;;;;5036475;28;20043;-85
2023/10/23 00:53:07;;;;;;;1.10;0.40;;;;;;;;;;5029491;28;20056;-85
2023/10/23 00:55:33;;;;;;;2.55;0.82;;;;;;;;;;5034910;28;20032;-85
2023/10/23 00:57:59;;;;;;;1.27;0.45;;;;;;;;;;5031886;28;20026;-84
2023/10/23 01:00:25;;;;;;;5.13;0.55;;;;;;;;;;5030184;28;20516;-86
2023/10/23 01:02:51;;;;;;;1.67;0.50;;;;;;;;;;5031941;28;20045;-86
2023/10/23 01:05:17;;;;;;;1.13;0.40;;;;;;;;;;5036305;28;20029;-87
2023/10/23 01:07:43;;;;;;;1.10;0.40;;;;;;;;;;5032170;28;20116;-84
2023/10/23 01:10:09;;;;;;;7.97;0.52;;;5.80;99.90;;;;;;5030617;28;20480;-84
2023/10/23 01:12:35;;;;;;;0.93;0.40;;;;;;;;;;5029674;28;20767;-87
2023/10/23 01:15:01;;;;;;;0.65;0.40;;;;;;;;;;5029452;28;20022;-84
2023/10/23 01:17:27;;;;;;;0.85;0.40;;;;;;;;;;5024084;28;20029;-85
2023/10/23 01:19:53;;;;;;;3.95;0.80;;;;;;;;;;5033624;28;20416;-85
2023/10/23 01:22:19;;;;;;;0.75;0.45;;;;;;;;;;5033238;28;20463;-86
2023/10/23 01:24:45;;;;;;;0.20;0.20;;;;;;;;;;5024279;28;20033;-87
2023/10/23 01:27:11;;;;;;;0.32;0.25;;;;;;;;;;5031500;28;20071;-87
2023/10/23 01:29:37;;;;;;;0.52;0.30;;;;;;;;;;5033498;28;20029;-83
2023/10/23 01:32:03;;;;;;;0.95;0.30;;;;;;;;;;5036587;28;20040;-85
2023/10/23 01:34:29;;;;;;;0.88;0.60;;;;;;;;;;5031805;28;20033;-87
2023/10/23 01:36:55;;;;;;;0.35;0.30;;;;;;;;;;5028232;28;20037;-86
2023/10/23 01:39:22;;;;;;;1.55;0.60;;;;;;;;;;5029253;28;20021;-86
2023/10/23 01:41:48;;;;;;;0.40;0.30;;;;;;;;;;5032197;28;20053;-83
2023/10/23 01:44:14;;;;;;;0.80;0.40;;;;;;;;;;5033313;28;20018;-84
2023/10/23 01:46:40;;;;;;;0.50;0.30;;;;;;;;;;5030239;28;20393;-85
2023/10/23 01:49:06;;;;;;;0.93;0.38;;;;;;;;;;5033024;28;20033;-88
2023/10/23 01:51:32;;;;;;;0.55;0.32;;;;;;;;;;5025915;28;20420;-85
2023/10/23 01:53:58;;;;;;;1.08;0.40;;;;;;;;;;5031498;28;20403;-85
2023/10/23 01:56:24;;;;;;;1.13;0.50;;;;;;;;;;5026372;28;20464;-83
2023/10/23 01:58:51;;;;;;;1.58;0.50;;;5.80;99.90;;;;;;5029418;28;22170;-86
2023/10/23 02:01:24;;;;;;;2.35;0.60;;;;;;;;;;5033052;28;20033;-83
2023/10/23 02:03:50;;;;;;;1.30;0.55;;;4.80;99.90;;;;;;5035134;28;20034;-86
2023/10/23 02:06:16;;;;;;;0.90;0.80;;;;;;;;;;5034054;28;20057;-83
2023/10/23 02:08:42;;;;;;;1.73;1.23;;;;;;;;;;5037922;28;20053;-86
2023/10/23 02:11:08;;;;;;;1.23;0.60;;;;;;;;;;5039159;28;20030;-85
2023/10/23 02:13:35;;;;;;;3.05;0.47;;;;;;;;;;5030301;28;20026;-84
2023/10/23 02:16:01;;;;;;;1.15;0.47;;;;;;;;;;5029014;28;20075;-83
2023/10/23 02:18:28;;;;;;;1.77;0.43;;;;;;;;;;5036010;28;20073;-86
2023/10/23 02:20:54;;;;;;;1.48;0.77;;;;;;;;;;5037553;28;20018;-87
2023/10/23 02:23:20;;;;;;;2.30;0.75;;;;;;;;;;5033599;28;20025;-85
2023/10/23 02:25:46;;;;;;;0.90;0.55;;;;;;;;;;5035507;28;20038;-83
2023/10/23 02:28:13;;;;;;;1.85;0.70;;;;;;;;;;5033164;28;20112;-85
2023/10/23 02:30:40;;;;;;;5.28;0.65;;;;;;;;;;5038538;28;20142;-85
2023/10/23 02:33:05;;;;;;;1.48;0.88;;;;;;;;;;5035327;28;20120;-83
2023/10/23 02:35:35;;;;;;;1.38;0.55;;;;;;;;;;5046888;28;20037;-87
2023/10/23 02:38:01;;;;;;;2.30;0.73;;;;;;;;;;5050565;28;20086;-87
2023/10/23 02:40:27;;;;;;;4.32;1.23;;;;;;;;;;5042474;28;20033;-86
2023/10/23 02:42:53;;;;;;;2.03;0.65;;;;;;;;;;5030561;28;20085;-84
2023/10/23 02:45:19;;;;;;;2.55;0.85;;;;;;;;;;5042074;28;20029;-85
2023/10/23 02:47:44;;;;;;;2.33;0.65;;;;;;;;;;5038844;28;20036;-85
2023/10/23 02:50:11;;;;;;;1.33;0.45;;;;;;;;;;5039038;28;20044;-85
2023/10/23 02:52:37;;;;;;;4.22;0.88;;;;;;;;;;5040196;28;20032;-85
2023/10/23 02:55:03;;;;;;;3.22;1.02;;;4.50;99.90;;;;;;5044074;28;20037;-85
2023/10/23 02:57:29;;;;;;;4.30;0.85;;;;;;;;;;5038609;28;20056;-86
2023/10/23 02:59:55;;;;;;;6.82;1.25;;;;;;;;;;5032181;28;20034;-86
2023/10/23 03:02:21;;;;;;;9.68;1.23;;;;;;;;;;5029158;28;20061;-86
2023/10/23 03:04:47;;;;;;;2.03;0.88;;;;;;;;;;5036136;28;20033;-86
2023/10/23 03:07:13;;;;;;;3.13;1.02;;;;;;;;;;5041641;28;20176;-85
2023/10/23 03:09:39;;;;;;;1.88;1.13;;;;;;;;;;5039725;28;20025;-85
2023/10/23 03:12:05;;;;;;;2.33;1.38;;;;;;;;;;5037108;28;20507;-85
2023/10/23 03:14:32;;;;;;;1.90;0.75;;;;;;;;;;5025500;28;20231;-85
2023/10/23 03:16:58;;;;;;;3.72;1.23;;;;;;;;;;5033257;28;20029;-86
2023/10/23 03:19:25;;;;;;;4.10;0.98;;;;;;;;;;5035521;28;20036;-85
2023/10/23 03:21:51;;;;;;;2.80;1.23;;;;;;;;;;5036043;28;20026;-85
2023/10/23 03:24:18;;;;;;;1.33;0.60;;;;;;;;;;5037511;28;20018;-85
2023/10/23 03:26:44;;;;;;;9.82;0.93;;;;;;;;;;5032766;28;20017;-85
2023/10/23 03:29:10;;;;;;;2.47;1.05;;;;;;;;;;5032742;28;20033;-84
2023/10/23 03:31:36;;;;;;;3.22;1.33;;;;;;;;;;5030009;28;20033;-82
2023/10/23 03:34:02;;;;;;;1.67;0.80;;;;;;;;;;5038638;28;20062;-83
2023/10/23 03:36:27;;;;;;;2.80;1.25;;;;;;;;;;5029166;28;20033;-84
2023/10/23 03:38:54;;;;;;;1.35;0.98;;;;;;;;;;5031785;28;20029;-87
2023/10/23 03:41:20;;;;;;;1.95;1.10;;;;;;;;;;5031490;28;20025;-83
2023/10/23 03:43:46;;;;;;;8.40;1.80;;;;;;;;;;5035802;28;20037;-85
2023/10/23 03:46:12;;;;;;;2.40;1.02;;;;;;;;;;5022958;28;20052;-85
2023/10/23 03:48:38;;;;;;;2.67;1.25;;;;;;;;;;5023543;28;20064;-87
2023/10/23 03:51:04;;;;;;;1.58;1.05;;;;;;;;;;5031208;28;20471;-86
2023/10/23 03:53:30;;;;;;;4.75;1.40;;;;;;;;;;5034834;28;20125;-86
2023/10/23 03:55:56;;;;;;;5.85;1.02;;;;;;;;;;5032088;28;20049;-85
2023/10/23 03:58:22;;;;;;;3.70;1.52;;;;;;;;;;5032174;28;20031;-87
2023/10/23 04:00:52;;;;;;;4.68;1.55;;;;;;;;;;5031788;28;20045;-86
2023/10/23 04:03:18;;;;;;;4.82;1.67;;;;;;;;;;5027283;28;20048;-86
2023/10/23 04:05:44;;;;;;;2.30;1.13;;;;;;;;;;5036756;28;20040;-83
2023/10/23 04:08:10;;;;;;;2.47;1.48;;;;;;;;;;5039585;28;20033;-85
2023/10/23 04:10:36;;;;;;;2.38;1.20;;;;;;;;;;5027211;28;20049;-82
2023/10/23 04:13:02;;;;;;;3.92;1.98;;;;;;;;;;5028927;28;20545;-83
2023/10/23 04:15:28;;;;;;;4.35;1.65;;;;;;;;;;5034830;28;20168;-85
2023/10/23 04:17:54;;;;;;;1.63;1.15;;;;;;;;;;5032002;28;20072;-84
2023/10/23 04:20:20;;;;;;;2.72;1.73;;;;;;;;;;5027622;28;20169;-85
2023/10/23 04:22:46;;;;;;;8.93;1.88;;;;;;;;;;5034066;28;20471;-86
2023/10/23 04:25:12;;;;;;;1.83;1.10;;;;;;;;;;5022247;28;20101;-84
2023/10/23 04:27:38;;;;;;;2.85;1.83;;;;;;;;;;5020154;28;20030;-86
2023/10/23 04:30:04;;;;;;;3.00;1.67;;;;;;;;;;5015740;28;20053;-87
2023/10/23 04:32:30;;;;;;;3.88;1.83;;;;;;;;;;5012633;28;20120;-84
2023/10/23 04:34:56;;;;;;;11.23;1.88;;;;;;;;;;5024102;28;20494;-86
2023/10/23 04:37:22;;;;;;;3.90;1.45;;;;;;;;;;5010528;28;20129;-86
2023/10/23 04:39:48;;;;;;;3.40;1.73;;;;;;;;;;5030761;28;20034;-83
2023/10/23 04:42:14;;;;;;;2.50;1.35;;;;;;;;;;5026978;28;20064;-85
2023/10/23 04:44:40;;;;;;;2.45;1.38;;;;;;;;;;5027492;28;20052;-82
2023/10/23 04:47:06;;;;;;;8.48;1.75;;;;;;;;;;5012956;28;20838;-88
2023/10/23 04:49:32;;;;;;;2.97;1.75;;;;;;;;;;5010143;28;20387;-86
2023/10/23 04:51:58;;;;;;;4.10;1.63;;;;;;;;;;5003564;28;20030;-88
2023/10/23 04:54:24;;;;;;;8.43;1.98;;;;;;;;;;5018948;28;20045;-83
2023/10/23 04:56:50;;;;;;;5.32;1.85;;;;;;;;;;5017498;28;20029;-84
2023/10/23 04:59:16;;;;;;;4.15;1.75;;;;;;;;;;5033565;28;20034;-85
2023/10/23 05:01:42;;;;;;;3.35;1.80;;;;;;;;;;5027299;28;20056;-85
2023/10/23 05:04:08;;;;;;;3.08;1.95;;;;;;;;;;5027915;28;20109;-87
2023/10/23 05:06:34;;;;;;;3.80;1.88;;;;;;;;;;5019082;28;20179;-85
2023/10/23 05:09:00;;;;;;;4.43;1.65;;;;;;;;;;5021180;28;20124;-85
2023/10/23 05:11:26;;;;;;;3.50;2.08;;;;;;;;;;5015704;28;20037;-81
2023/10/23 05:13:52;;;;;;;5.05;2.38;;;;;;;;;;5032337;28;20017;-82
2023/10/23 05:16:18;;;;;;;7.80;2.22;;;;;;;;;;5021056;28;20083;-84
2023/10/23 05:18:44;;;;;;;3.42;1.90;;;;;;;;;;5029339;28;20021;-82
2023/10/23 05:21:11;;;;;;;3.88;2.03;;;;;;;;;;5027307;28;20040;-85
2023/10/23 05:23:38;;;;;;;3.00;1.50;;;;;;;;;;5030247;28;20037;-86
2023/10/23 05:26:04;;;;;;;9.85;2.20;;;;;;;;;;5032383;28;20018;-85
2023/10/23 05:28:29;;;;;;;4.65;2.00;;;;;;;;;;5026184;28;20388;-88
2023/10/23 05:30:55;;;;;;;2.95;1.40;;;;;;;;;;5028468;28;20080;-85
2023/10/23 05:33:21;;;;;;;7.57;1.50;;;;;;;;;;5030016;28;20116;-81
2023/10/23 05:35:47;;;;;;;3.90;1.90;;;;;;;;;;5026317;28;20037;-82
2023/10/23 05:38:13;;;;;;;8.45;1.75;;;;;;;;;;5028489;28;20037;-81
2023/10/23 05:40:39;;;;;;;2.97;1.67;;;;;;;;;;5030270;28;20032;-81
2023/10/23 05:43:05;;;;;;;11.63;1.80;;;5.60;99.90;;;;;;5026833;28;20038;-82
2023/10/23 05:45:31;;;;;;;3.95;1.75;;;;;;;;;;5033097;28;20041;-83
2023/10/23 05:47:57;;;;;;;4.55;1.80;;;;;;;;;;5030888;28;20035;-81
2023/10/23 05:50:23;;;;;;;3.90;1.85;;;;;;;;;;5032157;28;20030;-81
2023/10/23 05:52:49;;;;;;;3.15;1.65;;;;;;;;;;5032178;28;20029;-82
2023/10/23 05:55:15;;;;;;;7.13;2.25;;;;;;;;;;5034919;28;20037;-80
2023/10/23 05:57:41;;;;;;;3.13;1.90;;;;;;;;;;5030128;28;20025;-82
2023/10/23 06:00:10;;;;;;;3.20;2.30;;;5.80;99.90;;;;;;5036143;28;20031;-81
2023/10/23 06:02:36;;;;;;;3.17;2.05;;;;;;;;;;5024936;28;20037;-81
2023/10/23 06:05:01;;;;;;;6.13;2.45;;;;;;;;;;5030605;28;20067;-84
2023/10/23 06:07:29;;;;;;;4.18;2.60;;;;;;;;;;5034552;28;20037;-80
2023/10/23 06:09:56;;;;;;;3.45;2.25;;;;;;;;;;5031650;28;20241;-81
2023/10/23 06:12:22;;;;;;;4.50;2.13;;;;;;;;;;5029582;28;20038;-83
2023/10/23 06:14:48;;;;;;;3.25;1.83;;;;;;;;;;5036312;28;20055;-83
2023/10/23 06:17:14;;;;;;;5.30;2.67;;;;;;;;;;5033163;28;20022;-82
2023/10/23 06:19:40;;;;;;;6.18;1.85;;;;;;;;;;5027402;28;20037;-84
2023/10/23 06:22:06;;;;;;;3.42;2.20;;;;;;;;;;5020931;28;20456;-82
2023/10/23 06:24:32;;;;;;;3.50;2.35;;;;;;;;;;5026699;28;20381;-83
2023/10/23 06:26:58;;;;;;;6.03;3.10;;;;;;;;;;5029456;28;20896;-83
2023/10/23 06:29:24;;;;;;;8.02;3.40;;;;;;;;;;5030401;28;20037;-82
2023/10/23 06:31:50;;;;;;;6.88;2.38;;;;;;;;;;5021099;28;20029;-81
2023/10/23 06:34:16;;;;;;;4.35;2.10;;;;;;;;;;5036388;28;20110;-80
2023/10/23 06:36:43;;;;;;;4.22;1.95;;;;;;;;;;5032375;28;20061;-81
2023/10/23 06:39:09;;;;;;;3.30;1.77;;;;;;;;;;5024997;28;20029;-82
2023/10/23 06:41:35;;;;;;;4.35;2.53;;;;;;;;;;5034622;28;20052;-82
2023/10/23 06:44:01;;;;;;;3.85;2.40;;;;;;;;;;5024111;28;20033;-82
2023/10/23 06:46:26;;;;;;;5.03;2.53;;;;;;;;;;5037252;28;20021;-81
2023/10/23 06:48:52;;;;;;;4.15;2.15;;;;;;;;;;5038298;28;20021;-83
2023/10/23 06:51:18;;;;;;;4.10;2.05;;;;;;;;;;5037900;28;20033;-81
2023/10/23 06:53:44;;;;;;;10.07;3.03;;;;;;;;;;5038750;28;20037;-81
2023/10/23 06:56:10;;;;;;;2.92;1.52;;;;;;;;;;5046307;28;20407;-81
2023/10/23 06:58:36;;;;;;;9.27;2.55;;;;;;;;;;5040422;28;20517;-83
2023/10/23 07:01:07;;;;;;;4.60;2.47;;;5.80;99.90;;;;;;5034487;28;20022;-83
2023/10/23 07:03:33;;;;;;;4.07;1.92;;;;;;;;;;5035575;28;20034;-82
2023/10/23 07:05:59;;;;;;;5.28;3.10;;;;;;;;;;5032087;28;20108;-81
2023/10/23 07:08:25;;;;;;;13.75;2.35;;;;;;;;;;5035404;28;20045;-83
2023/10/23 07:10:51;;;;;;;7.28;3.78;;;;;;;;;;5037562;28;20058;-83
2023/10/23 07:13:17;;;;;;;5.13;2.65;;;;;;;;;;5037963;28;20045;-83
2023/10/23 07:15:43;;;;;;;5.68;3.17;;;;;;;;;;5032025;28;20061;-82
2023/10/23 07:18:10;;;;;;;7.50;4.20;;;;;;;;;;5033828;28;20026;-82
2023/10/23 07:20:36;;;;;;;5.20;2.72;;;;;;;;;;5031037;28;20030;-81
2023/10/23 07:23:02;;;;;;;10.10;2.67;;;;;;;;;;5029983;28;20029;-79
2023/10/23 07:25:28;;;;;;;4.93;2.33;;;;;;;;;;5033315;28;20030;-78
2023/10/23 07:27:54;;;;;;;4.63;2.45;;;;;;;;;;5032605;28;20534;-82
2023/10/23 07:30:23;;;;;;;3.97;2.17;;;;;;;;;;5036195;28;20049;-83
2023/10/23 07:32:49;;;;;;;8.43;2.42;;;;;;;;;;5035920;28;20025;-81
2023/10/23 07:35:16;;;;;;;4.53;2.38;;;;;;;;;;5034360;28;20036;-81
2023/10/23 07:37:42;;;;;;;2.92;1.90;;;;;;;;;;5036391;28;20091;-82
2023/10/23 07:40:08;;;;;;;4.57;2.17;;;;;;;;;;5035717;28;20506;-82
2023/10/23 07:42:34;;;;;;;4.53;2.20;;;;;;;;;;5036006;28;20021;-83
2023/10/23 07:45:00;;;;;;;6.32;3.13;;;;;;;;;;5034552;28;20416;-82
2023/10/23 07:47:28;;;;;;;2.97;1.88;;;;;;;;;;5031223;28;20034;-82
2023/10/23 07:49:54;;;;;;;4.82;1.88;;;;;;;;;;5029110;28;20045;-81
2023/10/23 07:52:20;;;;;;;3.58;1.92;;;;;;;;;;5032777;28;20085;-81
2023/10/23 07:54:46;;;;;;;3.33;2.08;;;;;;;;;;5041067;28;20048;-81
2023/10/23 07:57:12;;;;;;;2.72;1.77;;;;;;;;;;5038159;28;20089;-82
2023/10/23 07:59:39;;;;;;;3.65;2.20;;;;;;;;;;5037311;28;20029;-83
2023/10/23 08:02:06;;;;;;;3.35;1.75;;;;;;;;;;5031323;28;20030;-84
2023/10/23 08:04:32;;;;;;;3.20;1.75;;;;;;;;;;5030043;28;20041;-80
2023/10/23 08:06:59;;;;;;;2.95;1.75;;;;;;;;;;5032768;28;20040;-80
2023/10/23 08:09:25;;;;;;;3.47;1.80;;;;;;;;;;5032783;28;20087;-82
2023/10/23 08:11:53;;;;;;;4.82;1.75;;;;;;;;;;5036605;28;20487;-80
2023/10/23 08:14:19;;;;;;;2.65;1.75;;;;;;;;;;5030425;28;20029;-80
2023/10/23 08:16:45;;;;;;;3.92;2.25;;;;;;;;;;5036727;28;20028;-80
2023/10/23 08:19:12;;;;;;;2.25;1.48;;;;;;;;;;5034231;28;20032;-81
2023/10/23 08:21:38;;;;;;;3.10;1.77;;;;;;;;;;5033336;28;20022;-81
2023/10/23 08:24:05;;;;;;;2.75;1.42;;;;;;;;;;5034910;28;20041;-82
2023/10/23 08:26:31;;;;;;;3.58;2.20;;;9.20;99.90;;;;;;5035037;28;20029;-82
2023/10/23 08:28:57;;;;;;;2.17;1.45;;;;;;;;;;5036243;28;20034;-81
2023/10/23 08:31:23;;;;;;;4.07;1.92;;;;;;;;;;5029905;28;20097;-81
2023/10/23 08:33:48;;;;;;;2.17;1.23;;;9.50;99.90;;;;;;5029343;28;20100;-83
2023/10/23 08:36:14;;;;;;;2.83;1.30;;;;;;;;;;5035101;28;20032;-82
2023/10/23 08:38:40;;;;;;;1.95;1.42;;;;;;;;;;5037415;28;20542;-83
2023/10/23 08:41:09;;;;;;;1.35;1.10;;;10.20;99.90;;;;;;5034622;28;20071;-81
2023/10/23 08:43:35;;;;;;;2.28;1.55;;;9.90;99.90;;;;;;5035625;28;20025;-82
2023/10/23 08:46:01;;;;;;;2.40;1.23;;;9.50;99.90;;;;;;5035272;28;20476;-81
2023/10/23 08:48:27;;;;;;;3.05;1.70;;;;;;;;;;5029470;28;20045;-81
2023/10/23 08:50:56;;;;;;;2.60;1.33;;;;;;;;;;5034372;28;20025;-80
2023/10/23 08:53:23;;;;;;;3.72;1.42;;;;;;;;;;5035314;28;20029;-81
2023/10/23 08:55:51;;;;;;;2.67;1.30;;;;;;;;;;5029027;28;20500;-80
2023/10/23 08:58:19;;;;;;;2.22;1.30;;;9.80;99.90;;;;;;5030103;28;20036;-81
2023/10/23 09:00:46;;;;;;;2.03;0.93;;;;;;;;;;5033648;28;20030;-81
2023/10/23 09:03:12;;;;;;;4.25;1.48;;;9.90;99.90;;;;;;5031468;28;20674;-85
2023/10/23 09:05:38;;;;;;;3.58;1.55;;;;;;;;;;5035759;28;20482;-81
2023/10/23 09:08:04;;;;;;;3.28;1.67;;;;;;;;;;5034953;28;20060;-81
2023/10/23 09:10:30;;;;;;;2.38;1.35;;;;;;;;;;5039287;28;20060;-82
2023/10/23 09:12:56;;;;;;;1.63;1.05;;;;;;;;;;5024999;28;20029;-81
2023/10/23 09:15:24;;;;;;;2.08;1.33;;;;;;;;;;5034188;28;20033;-82
2023/10/23 09:17:50;;;;;;;4.40;1.50;;;;;;;;;;5032816;28;20072;-81
2023/10/23 09:20:18;;;;;;;2.95;1.63;;;;;;;;;;5040401;28;20265;-81
2023/10/23 09:22:47;;;;;;;4.43;1.42;;;;;;;;;;5041315;28;20033;-81
2023/10/23 09:25:14;;;;;;;3.30;1.02;;;;;;;;;;5034182;28;20033;-81
2023/10/23 09:27:40;;;;;;;4.65;1.73;;;;;;;;;;5034318;28;20057;-81
2023/10/23 09:30:08;;;;;;;2.35;1.30;;;;;;;;;;5039024;28;20056;-81
2023/10/23 09:32:34;;;;;;;4.07;1.17;;;10.70;99.90;;;;;;5035756;28;20492;-81
2023/10/23 09:35:00;;;;;;;4.25;1.73;;;11.20;99.90;;;;;;5030230;28;20037;-82
2023/10/23 09:37:27;;;;;;;1.63;1.08;;;12.20;99.90;;;;;;5036890;28;20080;-81
2023/10/23 09:39:52;;;;;;;3.47;1.38;;;;;;;;;;5033043;28;20075;-81
2023/10/23 09:42:19;;;;;;;2.47;1.17;;;;;;;;;;5033630;28;20484;-82
2023/10/23 09:44:46;;;;;;;1.65;1.00;;;;;;;;;;5036551;28;20048;-84
2023/10/23 09:47:12;;;;;;;1.77;1.10;;;;;;;;;;5035080;28;21087;-81
2023/10/23 09:49:41;;;;;;;5.60;1.40;;;;;;;;;;5033330;28;20288;-81
2023/10/23 09:52:09;;;;;;;2.25;0.80;;;12.30;99.90;;;;;;5040369;28;20022;-81
2023/10/23 09:54:38;;;;;;;3.05;1.40;;;;;;;;;;5042477;28;20403;-82
2023/10/23 09:57:07;;;;;;;12.73;1.75;;;12.30;99.90;;;;;;5045067;28;20022;-81
2023/10/23 09:59:48;;;;;;;2.78;1.95;;;12.50;99.90;;;;;;5041781;28;20017;-81
2023/10/23 10:02:17;;;;;;;2.80;1.05;;;13.20;99.90;;;;;;5034098;28;20025;-81
2023/10/23 10:05:05;;;;;;;2.55;1.30;;;12.70;99.90;;;;;;5034096;28;20525;-80
2023/10/23 10:07:44;;;;;;;9.55;1.23;;;12.90;99.90;;;;;;5040458;28;20029;-80
2023/10/23 10:10:10;;;;;;;2.67;1.20;;;;;;;;;;5040313;28;20025;-81
2023/10/23 10:12:38;;;;;;;5.20;1.30;;;13.20;99.90;;;;;;5037365;28;20025;-82
2023/10/23 10:15:09;;;;;;;1.23;0.52;;;14.10;99.90;;;;;;5042369;28;20105;-82
2023/10/23 10:17:36;;;;;;;6.35;1.08;;;13.60;99.90;;;;;;5039007;28;20022;-81
2023/10/23 10:20:03;;;;;;;4.30;1.00;;;;;;;;;;5037539;28;20037;-82
2023/10/23 10:22:33;;;;;;;1.95;0.80;;;14.10;99.90;;;;;;5040012;28;20045;-82
2023/10/23 10:24:59;;;;;;;5.53;3.15;;;14.50;99.90;;;;;;5037503;28;20025;-82
2023/10/23 10:27:25;;;;;;;17.13;5.43;;;14.50;99.90;;;;;;5040122;28;20141;-81
2023/10/23 10:29:51;;;;;;;8.50;2.47;;;;;;;;;;5037890;28;20029;-81
2023/10/23 10:32:17;;;;;;;2.92;1.15;;;;;;;;;;5035776;28;20091;-82
2023/10/23 10:35:03;;;;;;;2.28;1.48;;;14.80;99.90;;;;;;5035912;28;20430;-81
2023/10/23 10:37:32;;;;;;;2.28;0.77;;;14.80;99.90;;;;;;5041274;28;20034;-81
2023/10/23 10:39:58;;;;;;;0.73;0.50;;;;;;;;;;5040343;28;20017;-82
2023/10/23 10:42:30;;;;;;;3.42;0.70;;;14.70;99.90;;;;;;5040269;28;20029;-82
2023/10/23 10:44:57;;;;;;;2.05;0.52;;;15.80;99.90;;;;;;5036247;28;20045;-83
2023/10/23 10:47:44;;;;;;;1.80;1.35;;;15.40;99.90;;;;;;5027340;28;20411;-83
2023/10/23 10:50:10;;;;;;;4.38;0.50;;;;;;;;;;5029735;28;20101;-84
2023/10/23 10:52:37;;;;;;;1.60;0.68;;;;;;;;;;5039411;28;20440;-83
2023/10/23 10:55:10;;;;;;;1.00;0.38;;;15.80;99.90;;;;;;5038276;28;20033;-83
2023/10/23 10:57:44;;;;;;;5.82;0.68;;;15.50;99.90;;;;;;5038623;28;20351;-83
2023/10/23 11:00:10;;;;;;;1.27;0.43;;;;;;;;;;5038151;28;20052;-84
2023/10/23 11:02:37;;;;;;;1.70;0.63;;;14.90;99.90;;;;;;5030788;28;20055;-86
2023/10/23 11:05:09;;;;;;;3.40;0.80;;;15.90;99.90;;;;;;5038524;28;20451;-83
2023/10/23 11:07:36;;;;;;;1.00;0.32;;;;;;;;;;5035666;28;20017;-83
2023/10/23 11:10:02;;;;;;;2.92;0.93;;;;;;;;;;5018808;28;20033;-83
2023/10/23 11:12:29;;;;;;;1.38;0.30;;;15.80;99.90;;;;;;5022054;28;20558;-85
2023/10/23 11:14:55;;;;;;;1.85;0.30;;;;;;;;;;5036592;28;20040;-86
2023/10/23 11:17:20;;;;;;;0.77;0.47;;;;;;;;;;5024613;28;20030;-85
2023/10/23 11:19:47;;;;;;;1.33;0.40;;;;;;;;;;5029050;28;20029;-87
2023/10/23 11:22:13;;;;;;;1.08;0.45;;;;;;;;;;5022363;28;20125;-87
2023/10/23 11:24:40;;;;;;;1.35;0.50;;;15.30;99.90;;;;;;5025287;28;20013;-89
2023/10/23 11:27:06;;;;;;;3.45;0.40;;;15.90;99.90;;;;;;5024035;28;20260;-84
2023/10/23 11:29:48;;;;;;;3.00;0.35;;;15.10;99.90;;;;;;5031866;28;20057;-85
2023/10/23 11:32:15;;;;;;;8.02;0.70;;;15.80;99.90;;;;;;5026484;28;20059;-82
2023/10/23 11:34:41;;;;;;;3.80;0.65;;;;;;;;;;5009969;28;20399;-84
2023/10/23 11:37:08;;;;;;;0.85;0.30;;;;;;;;;;5034500;28;20068;-84
2023/10/23 11:39:39;;;;;;;1.60;0.30;;;15.60;99.90;;;;;;5034681;28;20449;-85
2023/10/23 11:42:05;;;;;;;0.88;0.20;;;16.00;99.90;;;;;;5028191;28;20038;-84
2023/10/23 11:44:34;;;;;;;0.80;0.28;;;16.00;99.90;;;;;;5033440;28;20037;-85
2023/10/23 11:47:00;;;;;;;2.50;0.30;;;;;;;;;;5033581;28;20032;-85
2023/10/23 11:49:26;;;;;;;1.60;0.50;;;;;;;;;;5036820;28;20144;-85
2023/10/23 11:51:53;;;;;;;4.85;0.63;;;;;;;;;;5029186;28;20037;-86
2023/10/23 11:54:19;;;;;;;6.60;2.38;;;;;;;;;;5039303;28;20033;-83
2023/10/23 11:56:45;;;;;;;4.50;1.10;;;;;;;;;;5036667;28;20052;-82
2023/10/23 11:59:16;;;;;;;3.78;0.85;;;15.20;99.90;;;;;;5036955;28;20116;-86
2023/10/23 12:01:42;;;;;;;1.80;0.60;;;;;;;;;;5024192;28;20037;-85
2023/10/23 12:04:08;;;;;;;1.83;0.30;;;;;;;;;;5018123;28;20450;-86
2023/10/23 12:06:35;;;;;;;7.82;1.77;;;;;;;;;;5030130;28;20028;-85
2023/10/23 12:09:01;;;;;;;4.43;1.05;;;15.10;99.90;;;;;;5037864;28;20026;-83
2023/10/23 12:11:28;;;;;;;1.60;0.50;;;15.00;99.90;;;;;;5032715;28;20049;-88
2023/10/23 12:13:54;;;;;;;3.47;0.60;;;;;;;;;;5025946;28;20140;-87
2023/10/23 12:16:20;;;;;;;1.52;0.63;;;;;;;;;;5024526;28;20031;-90
2023/10/23 12:18:46;;;;;;;4.50;1.48;;;;;;;;;;5027431;28;20116;-86
2023/10/23 12:21:13;;;;;;;4.57;1.33;;;;;;;;;;5035406;28;20033;-87
2023/10/23 12:23:39;;;;;;;4.18;1.10;;;;;;;;;;5036387;28;20017;-87
2023/10/23 12:26:05;;;;;;;3.00;0.47;;;;;;;;;;5021295;28;20043;-88
2023/10/23 12:28:31;;;;;;;3.22;1.15;;;14.50;99.90;;;;;;5029319;28;20041;-86
2023/10/23 12:30:58;;;;;;;5.57;0.73;;;;;;;;;;5031599;28;20048;-85
2023/10/23 12:33:24;;;;;;;5.65;1.73;;;;;;;;;;5023477;28;20032;-89
2023/10/23 12:35:50;;;;;;;6.43;1.48;;;;;;;;;;5027194;28;20025;-88
2023/10/23 12:38:17;;;;;;;8.13;1.17;;;;;;;;;;5035442;28;20423;-85
2023/10/23 12:40:43;;;;;;;1.23;0.40;;;;;;;;;;5029045;28;20029;-84
2023/10/23 12:43:10;;;;;;;4.97;0.77;;;;;;;;;;5026328;28;20029;-87
2023/10/23 12:45:36;;;;;;;2.72;0.40;;;;;;;;;;5032973;28;20026;-83
2023/10/23 12:48:02;;;;;;;0.75;0.40;;;;;;;;;;5032389;28;20572;-83
2023/10/23 12:50:28;;;;;;;0.90;0.40;;;;;;;;;;5038863;28;20045;-86
2023/10/23 12:52:55;;;;;;;1.35;0.38;;;;;;;;;;5035940;28;20025;-84
2023/10/23 12:55:20;;;;;;;14.57;5.35;;;;;;;;;;5030428;28;20033;-87
2023/10/23 12:57:46;;;;;;;27.85;12.65;;;;;;;;;;5028374;28;20036;-84
2023/10/23 13:00:13;;;;;;;46.67;19.75;;;14.70;99.90;;;;;;5015312;28;20029;-86
2023/10/23 13:02:39;;;;;;;24.90;9.98;;;14.90;99.90;;;;;;5020688;28;20036;-83
2023/10/23 13:05:05;;;;;;;12.73;5.93;;;15.20;99.90;;;;;;5017761;28;20033;-87
2023/10/23 13:07:31;;;;;;;9.00;3.30;;;;;;;;;;5032622;28;22131;-83
2023/10/23 13:09:57;;;;;;;6.03;1.73;;;;;;;;;;5021714;28;20101;-82
2023/10/23 13:12:23;;;;;;;8.48;1.77;;;;;;;;;;5025711;28;20052;-85
2023/10/23 13:14:49;;;;;;;1.20;0.60;;;;;;;;;;5011413;28;20056;-86
2023/10/23 13:17:15;;;;;;;2.60;0.52;;;;;;;;;;5024233;28;20055;-85
2023/10/23 13:19:41;;;;;;;1.90;0.50;;;;;;;;;;5029587;28;20094;-85
2023/10/23 13:22:07;;;;;;;2.17;0.70;;;;;;;;;;5022179;28;20415;-87
2023/10/23 13:24:32;;;;;;;3.35;1.00;;;15.80;99.90;;;;;;5026668;28;20048;-84
2023/10/23 13:26:59;;;;;;;0.85;0.40;;;;;;;;;;5023267;28;20032;-86
2023/10/23 13:29:25;;;;;;;2.75;0.90;;;;;;;;;;5026164;28;20034;-86
2023/10/23 13:31:51;;;;;;;2.22;1.00;;;;;;;;;;5009613;28;20060;-86
2023/10/23 13:34:17;;;;;;;1.65;1.00;;;;;;;;;;5027206;28;20021;-85
2023/10/23 13:36:43;;;;;;;7.70;1.33;;;;;;;;;;5033992;28;20101;-84
2023/10/23 13:39:09;;;;;;;3.00;0.70;;;;;;;;;;5033458;28;20018;-85
2023/10/23 13:41:35;;;;;;;2.58;0.52;;;;;;;;;;5032598;28;20022;-86
2023/10/23 13:44:03;;;;;;;4.05;0.73;;;;;;;;;;5020461;28;20029;-84
2023/10/23 13:46:29;;;;;;;3.33;0.30;;;;;;;;;;5037993;28;20068;-86
2023/10/23 13:48:55;;;;;;;1.02;0.55;;;;;;;;;;5036287;28;20036;-86
2023/10/23 13:51:21;;;;;;;1.25;0.40;;;;;;;;;;5038693;28;20025;-83
2023/10/23 13:53:47;;;;;;;5.40;0.82;;;;;;;;;;5037210;28;20081;-83
2023/10/23 13:56:13;;;;;;;4.55;0.65;;;;;;;;;;5035919;28;20116;-84
2023/10/23 13:58:39;;;;;;;1.30;0.50;;;15.00;99.90;;;;;;5028297;28;20025;-83
2023/10/23 14:01:05;;;;;;;3.00;0.90;;;;;;;;;;5034731;28;20026;-88
2023/10/23 14:03:31;;;;;;;1.17;0.75;;;;;;;;;;5041828;28;20068;-91
2023/10/23 14:05:57;;;;;;;1.35;0.32;;;;;;;;;;5043780;28;20030;-85
2023/10/23 14:08:23;;;;;;;1.08;0.30;;;;;;;;;;5028401;28;20041;-89
2023/10/23 14:10:48;;;;;;;0.93;0.40;;;;;;;;;;5031371;28;20310;-84
2023/10/23 14:13:14;;;;;;;0.95;0.30;;;;;;;;;;5034624;28;20029;-83
2023/10/23 14:15:40;;;;;;;4.28;0.50;;;;;;;;;;5021328;28;20095;-88
2023/10/23 14:18:06;;;;;;;3.50;0.40;;;;;;;;;;5038252;28;20041;-85